CheckWX is a tool to help pilots better visualize weather data.  It is not intended as a substitute for an official pre-flight weather briefing.

12:31:40 UTC

PASC METAR
Deadhorse Airport
Deadhorse, Alaska, USA
Current

39 mins ago

PASC 041153Z 12005KT 10SM CLR M18/M21 A2986 RMK AO2 SLP115 I6000 T11831211 11167 21206 58020
Observed
Apr-4 @ 11:53 UTC
Wind
  • 120° at 5 KTS
Visibility
Flight Rules
VFR
Cloud Levels
  • Clear skies
Temperature
-18°C / 0°F
Dewpoint
-21°C / -6°F
Humidity
78%
Altimeter
29.86" Hg
Pressure
1011.22 hPa
Previous

2 hours ago

PASC 041053Z 11006KT 10SM CLR M19/M22 A2989 RMK AO2 SLP123 T11941217
Observed
Apr-4 @ 10:53 UTC
Wind
  • 110° at 6 KTS
Visibility
Flight Rules
VFR
Cloud Levels
  • Clear skies
Temperature
-19°C / -2°F
Dewpoint
-22°C / -8°F
Humidity
77%
Altimeter
29.89" Hg
Pressure
1012.22 hPa
Previous

3 hours ago

PASC 040953Z 11006KT 10SM CLR M21/M23 A2990 RMK AO2 SLP129 T12061228
Observed
Apr-4 @ 09:53 UTC
Wind
  • 110° at 6 KTS
Visibility
Flight Rules
VFR
Cloud Levels
  • Clear skies
Temperature
-21°C / -6°F
Dewpoint
-23°C / -9°F
Humidity
84%
Altimeter
29.9" Hg
Pressure
1012.52 hPa